createdAt,value
2019-01-23T00:01:42.476Z,0
2019-01-23T00:04:08.949Z,0
2019-01-23T00:05:02.290Z,0
2019-01-23T00:05:59.379Z,0
2019-01-23T00:07:02.804Z,0
2019-01-23T00:08:07.843Z,0
2019-01-23T00:09:01.346Z,0
2019-01-23T00:09:53.799Z,0
2019-01-23T00:10:46.397Z,0
2019-01-23T00:11:38.581Z,0
2019-01-23T00:12:31.123Z,0
2019-01-23T00:13:24.469Z,0
2019-01-23T00:14:23.866Z,0
2019-01-23T00:15:19.085Z,0
2019-01-23T00:16:11.489Z,0
2019-01-23T00:17:12.788Z,0
2019-01-23T00:18:16.707Z,0
2019-01-23T00:19:09.122Z,0
2019-01-23T00:20:01.746Z,0
2019-01-23T00:20:54.750Z,0
2019-01-23T00:27:29.320Z,0
2019-01-23T00:28:23.149Z,0
2019-01-23T00:29:15.354Z,0
2019-01-23T00:30:08.933Z,0
2019-01-23T00:31:01.499Z,0
2019-01-23T00:31:53.917Z,0
2019-01-23T00:32:47.302Z,0
2019-01-23T00:37:30.985Z,0
2019-01-23T00:39:56.113Z,0
2019-01-23T00:40:48.534Z,0
2019-01-23T00:41:41.694Z,0
2019-01-23T00:45:22.030Z,0
2019-01-23T00:46:14.990Z,0
2019-01-23T00:47:07.811Z,0
2019-01-23T00:48:00.712Z,0
2019-01-23T00:48:53.714Z,0
2019-01-23T01:03:44.907Z,0
2019-01-23T01:08:32.176Z,0
2019-01-23T01:09:26.202Z,0
2019-01-23T01:14:20.574Z,0
2019-01-23T01:15:14.411Z,0
2019-01-23T01:31:09.785Z,0
2019-01-23T01:32:14.584Z,0
2019-01-23T01:33:28.105Z,0
2019-01-23T01:34:22.410Z,0
2019-01-23T01:35:31.792Z,0
2019-01-23T01:36:38.456Z,0
2019-01-23T01:37:33.118Z,0
2019-01-23T01:38:27.814Z,0
2019-01-23T01:41:45.420Z,0
2019-01-23T01:42:51.740Z,0
2019-01-23T01:45:41.567Z,0
2019-01-23T01:46:34.889Z,0
2019-01-23T01:47:28.459Z,0
2019-01-23T01:48:20.848Z,0
2019-01-23T01:49:25.296Z,0
2019-01-23T01:50:20.863Z,0
2019-01-23T01:52:29.095Z,0
2019-01-23T01:53:21.125Z,0
2019-01-23T01:54:13.608Z,0
2019-01-23T01:55:05.678Z,0
2019-01-23T01:55:58.730Z,0
2019-01-23T01:56:51.274Z,0
2019-01-23T01:57:44.226Z,0
2019-01-23T02:00:30.104Z,0
2019-01-23T02:01:23.483Z,0
2019-01-23T02:04:35.047Z,0
2019-01-23T02:05:28.542Z,0
2019-01-23T02:06:22.297Z,0
2019-01-23T02:07:17.828Z,0
2019-01-23T02:08:11.714Z,0
2019-01-23T02:12:33.747Z,0
2019-01-23T02:13:49.756Z,0
2019-01-23T02:14:42.371Z,0
2019-01-23T02:17:32.245Z,0
2019-01-23T02:18:24.276Z,0
2019-01-23T02:19:16.661Z,0
2019-01-23T02:20:10.046Z,0
2019-01-23T02:21:02.424Z,0
2019-01-23T02:21:54.544Z,0
2019-01-23T02:22:48.028Z,0
2019-01-23T02:23:40.495Z,0
2019-01-23T02:24:32.949Z,0
2019-01-23T02:25:25.643Z,0
2019-01-23T02:26:18.021Z,0
2019-01-23T02:27:10.978Z,0
2019-01-23T02:28:02.826Z,0
2019-01-23T02:28:55.234Z,0
2019-01-23T02:31:23.584Z,0
2019-01-23T02:32:16.326Z,0
2019-01-23T02:34:32.718Z,0
2019-01-23T02:37:11.573Z,0
2019-01-23T02:40:04.784Z,0
2019-01-23T02:40:59.354Z,0
2019-01-23T02:41:52.667Z,0
2019-01-23T02:42:44.358Z,0
2019-01-23T02:43:39.950Z,0
2019-01-23T02:44:32.117Z,0
2019-01-23T02:45:25.823Z,0
2019-01-23T02:46:19.186Z,0
2019-01-23T02:47:11.354Z,0
2019-01-23T02:48:05.792Z,0
2019-01-23T02:48:56.341Z,0
2019-01-23T02:49:48.494Z,0
2019-01-23T02:50:40.560Z,0
2019-01-23T02:51:33.878Z,0
2019-01-23T02:54:08.309Z,0
2019-01-23T02:55:00.868Z,0
2019-01-23T02:57:50.227Z,0
2019-01-23T02:58:42.862Z,0
2019-01-23T02:59:35.262Z,0
2019-01-23T03:00:28.762Z,0
2019-01-23T03:01:21.464Z,0
2019-01-23T03:02:13.435Z,0
2019-01-23T03:03:06.587Z,0
2019-01-23T03:03:58.736Z,0
2019-01-23T03:04:50.679Z,0
2019-01-23T03:05:43.162Z,0
2019-01-23T03:06:35.340Z,0
2019-01-23T03:07:27.453Z,0
2019-01-23T03:10:13.608Z,0
2019-01-23T03:11:05.640Z,0
2019-01-23T03:11:58.019Z,0
2019-01-23T03:12:50.841Z,0
2019-01-23T03:13:42.886Z,0
2019-01-23T03:14:35.043Z,0
2019-01-23T03:15:27.630Z,0
2019-01-23T03:16:20.303Z,0
2019-01-23T03:17:12.657Z,0
2019-01-23T03:18:05.032Z,0
2019-01-23T03:18:57.463Z,0
2019-01-23T03:19:49.985Z,0
2019-01-23T03:20:42.458Z,0
2019-01-23T03:21:34.498Z,0
2019-01-23T03:22:26.589Z,0
2019-01-23T03:23:20.367Z,0
2019-01-23T03:24:12.513Z,0
2019-01-23T03:25:04.632Z,0
2019-01-23T03:25:56.575Z,0
2019-01-23T03:26:49.375Z,0
2019-01-23T03:27:41.473Z,0
2019-01-23T03:28:34.099Z,0
2019-01-23T03:29:26.767Z,0
2019-01-23T03:30:20.542Z,0
2019-01-23T03:31:08.791Z,0
2019-01-23T03:33:18.207Z,0
2019-01-23T03:34:10.913Z,0
2019-01-23T03:35:02.868Z,0
2019-01-23T03:35:54.741Z,0
2019-01-23T03:36:46.672Z,0
2019-01-23T03:37:38.552Z,0
2019-01-23T03:38:30.903Z,0
2019-01-23T03:39:23.065Z,0
2019-01-23T03:40:15.136Z,0
2019-01-23T03:41:08.189Z,0
2019-01-23T03:42:00.266Z,0
2019-01-23T03:42:52.594Z,0
2019-01-23T03:43:44.504Z,0
2019-01-23T03:44:37.519Z,0
2019-01-23T03:45:25.237Z,0
2019-01-23T03:46:05.382Z,0
2019-01-23T03:46:45.793Z,0
2019-01-23T03:47:26.145Z,0
2019-01-23T03:48:06.513Z,0
2019-01-23T03:48:46.941Z,0
2019-01-23T03:49:27.301Z,0
2019-01-23T03:50:07.650Z,0
2019-01-23T03:50:48.036Z,0
2019-01-23T03:51:28.413Z,0
2019-01-23T03:52:08.780Z,0
2019-01-23T03:52:49.166Z,0
2019-01-23T03:53:29.519Z,0
2019-01-23T03:54:09.931Z,0
2019-01-23T03:54:50.278Z,0
2019-01-23T03:55:30.719Z,0
2019-01-23T03:56:11.036Z,0
2019-01-23T03:56:51.479Z,0
2019-01-23T03:57:31.924Z,0
2019-01-23T03:58:12.216Z,0
2019-01-23T03:58:52.682Z,0
2019-01-23T03:59:33.148Z,0
2019-01-23T04:00:13.464Z,0
2019-01-23T04:00:53.834Z,0
2019-01-23T04:01:34.202Z,0
2019-01-23T04:02:14.608Z,0
2019-01-23T04:02:55.031Z,0
2019-01-23T04:03:35.367Z,0
2019-01-23T04:04:15.768Z,0
2019-01-23T04:04:56.118Z,0
2019-01-23T04:05:36.513Z,0
2019-01-23T04:06:16.817Z,0
2019-01-23T04:06:57.291Z,0
2019-01-23T04:07:37.622Z,0
2019-01-23T04:08:17.987Z,0
2019-01-23T04:08:58.402Z,0
2019-01-23T04:09:38.817Z,0
2019-01-23T04:10:19.198Z,0
2019-01-23T04:10:59.527Z,0
2019-01-23T04:11:39.926Z,0
2019-01-23T04:12:20.302Z,0
2019-01-23T04:13:00.683Z,0
2019-01-23T04:13:41.058Z,0
2019-01-23T04:14:21.479Z,0
2019-01-23T04:15:01.847Z,0
2019-01-23T04:15:42.308Z,0
2019-01-23T04:16:22.665Z,0
2019-01-23T04:17:03.058Z,0
2019-01-23T04:17:43.444Z,0
2019-01-23T04:18:23.800Z,0
2019-01-23T04:19:04.235Z,0
2019-01-23T04:19:44.578Z,0
2019-01-23T04:20:25.070Z,0
2019-01-23T04:21:05.490Z,0
2019-01-23T04:21:45.815Z,0
2019-01-23T04:22:26.157Z,0
2019-01-23T04:23:06.581Z,0
2019-01-23T04:23:46.952Z,0
2019-01-23T04:24:27.369Z,0
2019-01-23T04:25:07.749Z,0
2019-01-23T04:25:48.142Z,0
2019-01-23T04:26:28.518Z,0
2019-01-23T04:27:08.896Z,0
2019-01-23T04:27:49.335Z,0
2019-01-23T04:28:29.649Z,0
2019-01-23T05:09:01.701Z,0
2019-01-23T05:09:54.390Z,0
2019-01-23T05:10:47.397Z,0
2019-01-23T05:11:39.825Z,0
2019-01-23T05:12:32.245Z,0
2019-01-23T05:13:24.941Z,0
2019-01-23T05:14:17.783Z,0
2019-01-23T05:15:10.206Z,0
2019-01-23T05:16:03.119Z,0
2019-01-23T05:16:55.464Z,0
2019-01-23T05:17:48.860Z,0
2019-01-23T05:18:41.672Z,0
2019-01-23T05:19:34.178Z,0
2019-01-23T05:20:26.605Z,0
2019-01-23T05:21:19.622Z,0
2019-01-23T05:22:12.651Z,0
2019-01-23T05:23:05.084Z,0
2019-01-23T05:23:58.438Z,0
2019-01-23T05:24:50.778Z,0
2019-01-23T05:25:43.190Z,0
2019-01-23T05:26:36.540Z,0
2019-01-23T05:27:29.324Z,0
2019-01-23T05:28:21.030Z,0
2019-01-23T05:30:31.969Z,0
2019-01-23T05:31:24.243Z,0
2019-01-23T05:32:17.297Z,0
2019-01-23T05:33:09.612Z,0
2019-01-23T05:34:02.667Z,0
2019-01-23T05:34:55.543Z,0
2019-01-23T05:35:48.552Z,0
2019-01-23T05:36:40.819Z,0
2019-01-23T05:37:33.191Z,0
2019-01-23T05:38:25.291Z,0
2019-01-23T05:39:17.171Z,0
2019-01-23T05:40:09.883Z,0
2019-01-23T05:41:02.249Z,0
2019-01-23T05:41:55.202Z,0
2019-01-23T05:42:48.816Z,0
2019-01-23T05:43:45.435Z,0
2019-01-23T05:44:35.994Z,0
2019-01-23T05:45:28.825Z,0
2019-01-23T05:46:21.746Z,0
2019-01-23T05:47:14.464Z,0
2019-01-23T05:48:07.923Z,0
2019-01-23T05:49:01.241Z,0
2019-01-23T05:49:54.077Z,0
2019-01-23T05:52:48.391Z,0
2019-01-23T05:53:40.694Z,0
2019-01-23T05:54:32.902Z,0
2019-01-23T05:55:26.348Z,0
2019-01-23T05:56:18.459Z,0
2019-01-23T05:57:12.275Z,0
2019-01-23T05:58:06.004Z,0
2019-01-23T05:58:58.076Z,0
2019-01-23T05:59:51.357Z,0
2019-01-23T06:00:45.185Z,0
2019-01-23T06:01:39.301Z,0
2019-01-23T06:02:31.654Z,0
2019-01-23T06:03:23.668Z,0
2019-01-23T06:04:15.893Z,0
2019-01-23T06:05:09.285Z,0
2019-01-23T06:06:03.669Z,0
2019-01-23T06:06:56.128Z,0
2019-01-23T06:07:49.322Z,0
2019-01-23T06:08:42.371Z,0
2019-01-23T06:09:34.406Z,0
2019-01-23T06:10:26.899Z,0
2019-01-23T06:11:19.537Z,0
2019-01-23T06:12:11.917Z,0
2019-01-23T06:13:04.446Z,0
2019-01-23T06:13:56.531Z,0
2019-01-23T06:14:49.468Z,0
2019-01-23T06:15:42.222Z,0
2019-01-23T06:16:34.537Z,0
2019-01-23T06:17:29.598Z,0
2019-01-23T06:18:22.478Z,0
2019-01-23T06:19:14.686Z,0
2019-01-23T06:20:07.814Z,0
2019-01-23T06:21:00.542Z,0
2019-01-23T06:21:53.570Z,0
2019-01-23T06:22:46.048Z,0
2019-01-23T06:23:38.591Z,0
2019-01-23T06:24:31.380Z,0
2019-01-23T06:25:25.220Z,0
2019-01-23T06:26:17.438Z,0
2019-01-23T06:27:10.569Z,0
2019-01-23T06:28:03.052Z,0
2019-01-23T06:28:55.394Z,0
2019-01-23T06:29:48.214Z,0
2019-01-23T06:30:40.330Z,0
2019-01-23T06:31:34.569Z,0
2019-01-23T06:32:27.272Z,0
2019-01-23T06:33:20.454Z,0
2019-01-23T06:34:12.951Z,0
2019-01-23T06:35:06.044Z,0
2019-01-23T06:35:57.538Z,0
2019-01-23T06:36:49.995Z,0
2019-01-23T06:37:42.546Z,0
2019-01-23T06:38:35.104Z,0
2019-01-23T06:39:31.661Z,0
2019-01-23T06:42:50.452Z,0
2019-01-23T06:43:51.912Z,0
2019-01-23T06:45:01.010Z,0
2019-01-23T06:45:55.712Z,0
2019-01-23T06:46:48.267Z,0
2019-01-23T06:47:48.443Z,0
2019-01-23T06:48:41.722Z,0
2019-01-23T06:49:39.905Z,0
2019-01-23T06:50:47.555Z,0
2019-01-23T06:51:50.052Z,0
2019-01-23T06:52:46.734Z,0
2019-01-23T06:53:47.341Z,0
2019-01-23T06:54:47.385Z,0
2019-01-23T06:55:49.787Z,0
2019-01-23T06:56:43.547Z,0
2019-01-23T06:57:36.905Z,0
2019-01-23T06:58:31.429Z,0
2019-01-23T06:59:35.404Z,0
2019-01-23T07:00:47.748Z,4
2019-01-23T07:01:48.775Z,0
2019-01-23T07:02:45.371Z,4
2019-01-23T07:03:41.903Z,4
2019-01-23T07:04:36.449Z,4
2019-01-23T07:05:28.929Z,4
2019-01-23T07:06:25.840Z,4
2019-01-23T07:07:20.762Z,8
2019-01-23T07:08:13.756Z,8
2019-01-23T07:09:06.083Z,8
2019-01-23T07:09:59.128Z,8
2019-01-23T07:10:51.432Z,12
2019-01-23T07:11:44.704Z,12
2019-01-23T07:12:37.825Z,12
2019-01-23T07:18:25.955Z,24
2019-01-23T07:19:23.020Z,24
2019-01-23T07:20:15.956Z,24
2019-01-23T07:21:14.890Z,28
2019-01-23T07:22:07.926Z,32
2019-01-23T07:23:01.283Z,36
2019-01-23T07:23:57.427Z,36
2019-01-23T07:24:50.379Z,36
2019-01-23T07:25:43.842Z,44
2019-01-23T07:26:39.591Z,44
2019-01-23T07:29:25.090Z,56
2019-01-23T07:30:24.228Z,64
2019-01-23T07:31:16.383Z,68
2019-01-23T07:32:23.300Z,72
2019-01-23T07:33:18.533Z,80
2019-01-23T07:34:11.297Z,80
2019-01-23T07:35:07.073Z,84
2019-01-23T07:36:05.086Z,92
2019-01-23T07:37:01.778Z,92
2019-01-23T07:38:05.117Z,100
2019-01-23T07:47:16.321Z,156
2019-01-23T07:48:12.646Z,164
2019-01-23T07:49:07.404Z,168
2019-01-23T07:50:03.636Z,172
2019-01-23T07:51:00.818Z,176
2019-01-23T07:51:56.306Z,180
2019-01-23T07:52:56.253Z,184
2019-01-23T07:53:48.774Z,188
2019-01-23T07:54:42.754Z,192
2019-01-23T07:55:38.734Z,200
2019-01-23T07:56:31.558Z,204
2019-01-23T07:57:25.000Z,208
2019-01-23T07:58:19.094Z,216
2019-01-23T07:59:12.839Z,228
2019-01-23T08:02:13.963Z,268
2019-01-23T08:03:06.812Z,284
2019-01-23T08:06:04.125Z,336
2019-01-23T08:06:58.292Z,356
2019-01-23T08:07:53.876Z,368
2019-01-23T08:08:47.896Z,376
2019-01-23T08:09:46.749Z,384
2019-01-23T08:10:40.817Z,388
2019-01-23T08:11:39.095Z,392
2019-01-23T08:12:34.380Z,396
2019-01-23T08:13:35.831Z,416
2019-01-23T08:14:46.729Z,440
2019-01-23T08:15:55.871Z,464
2019-01-23T08:16:48.553Z,480
2019-01-23T08:17:52.936Z,492
2019-01-23T08:18:49.529Z,504
2019-01-23T08:19:47.598Z,516
2019-01-23T08:22:24.661Z,544
2019-01-23T08:23:20.834Z,556
2019-01-23T08:26:38.599Z,628
2019-01-23T08:27:36.085Z,648
2019-01-23T08:28:34.569Z,664
2019-01-23T08:29:29.113Z,688
2019-01-23T08:30:38.557Z,712
2019-01-23T08:31:28.848Z,748
2019-01-23T08:32:29.681Z,784
2019-01-23T08:33:28.689Z,820
2019-01-23T08:34:25.082Z,848
2019-01-23T08:35:20.131Z,856
2019-01-23T08:36:38.238Z,844
2019-01-23T08:37:34.897Z,860
2019-01-23T08:38:37.151Z,896
2019-01-23T08:39:36.541Z,920
2019-01-23T08:40:36.048Z,936
2019-01-23T08:43:32.961Z,988
2019-01-23T08:44:14.456Z,992
2019-01-23T08:44:54.848Z,988
2019-01-23T08:47:42.796Z,1092
2019-01-23T08:51:24.681Z,1168
2019-01-23T08:52:20.855Z,1188
2019-01-23T08:53:14.258Z,1228
2019-01-23T08:54:10.027Z,1268
2019-01-23T08:55:07.197Z,1320
2019-01-23T08:56:02.311Z,1384
2019-01-23T08:56:59.799Z,1440
2019-01-23T08:57:58.995Z,1484
2019-01-23T08:58:53.263Z,1520
2019-01-23T08:59:52.959Z,1568
2019-01-23T09:02:37.094Z,1640
2019-01-23T09:03:34.213Z,1648
2019-01-23T09:04:33.684Z,1668
2019-01-23T09:11:29.406Z,1800
2019-01-23T09:12:25.900Z,1804
2019-01-23T09:17:47.228Z,1840
2019-01-23T09:18:45.365Z,1892
2019-01-23T09:20:31.629Z,1980
2019-01-23T09:21:27.224Z,1976
2019-01-23T09:22:28.019Z,1968
2019-01-23T09:23:25.032Z,1964
2019-01-23T09:24:21.831Z,1944
2019-01-23T09:25:19.726Z,1928
2019-01-23T09:26:21.032Z,1904
2019-01-23T09:29:00.395Z,1880
2019-01-23T09:33:51.378Z,1984
2019-01-23T09:35:34.561Z,2136
2019-01-23T09:36:34.254Z,2160
2019-01-23T09:37:35.744Z,2172
2019-01-23T09:38:17.321Z,2212
2019-01-23T09:39:11.763Z,2248
2019-01-23T09:46:38.622Z,2164
2019-01-23T09:54:05.299Z,2828
2019-01-23T09:55:04.125Z,2944
2019-01-23T09:56:03.621Z,2884
2019-01-23T09:57:05.760Z,2972
2019-01-23T09:58:07.120Z,2944
2019-01-23T10:08:01.685Z,2444
2019-01-23T10:29:40.530Z,2320
2019-01-23T11:08:48.409Z,2140
2019-01-23T11:37:25.626Z,1616
2019-01-23T11:55:44.512Z,1176
2019-01-23T11:58:55.866Z,1176
2019-01-23T11:59:57.105Z,1224
2019-01-23T12:00:53.207Z,1276
2019-01-23T12:03:46.775Z,1316
2019-01-23T12:05:03.500Z,1320
2019-01-23T12:12:09.314Z,1312
2019-01-23T12:43:22.360Z,1572
2019-01-23T13:04:00.697Z,1096
2019-01-23T13:04:57.676Z,1088
2019-01-23T13:05:50.774Z,1100
2019-01-23T13:06:49.524Z,1072
2019-01-23T13:07:44.997Z,1024
2019-01-23T13:13:34.791Z,1156
2019-01-23T13:14:28.615Z,1128
2019-01-23T13:15:37.271Z,1116
2019-01-23T13:16:33.762Z,1136
2019-01-23T13:20:36.087Z,1388
2019-01-23T13:21:30.931Z,1424
2019-01-23T13:22:25.143Z,1404
2019-01-23T13:23:19.726Z,1356
2019-01-23T13:24:15.016Z,1344
2019-01-23T13:25:09.801Z,1320
2019-01-23T13:27:46.973Z,1320
2019-01-23T13:31:00.518Z,1348
2019-01-23T13:32:17.757Z,1312
2019-01-23T13:33:22.266Z,1232
2019-01-23T13:37:45.077Z,1012
2019-01-23T13:38:46.387Z,1020
2019-01-23T13:39:42.017Z,1040
2019-01-23T13:40:38.435Z,1048
2019-01-23T13:41:36.009Z,1060
2019-01-23T13:42:45.095Z,1076
2019-01-23T13:43:45.474Z,1080
2019-01-23T13:44:47.563Z,1120
2019-01-23T13:45:46.442Z,1164
2019-01-23T14:01:03.213Z,960
2019-01-23T14:15:53.751Z,844
2019-01-23T14:16:43.892Z,824
2019-01-23T14:17:33.393Z,796
2019-01-23T14:21:47.223Z,652
2019-01-23T14:22:44.210Z,628
2019-01-23T14:23:36.454Z,600
2019-01-23T14:24:33.432Z,572
2019-01-23T14:25:32.613Z,556
2019-01-23T14:26:27.324Z,556
2019-01-23T14:29:02.953Z,536
2019-01-23T14:29:54.922Z,520
2019-01-23T14:32:57.634Z,472
2019-01-23T14:33:53.992Z,456
2019-01-23T14:38:32.691Z,412
2019-01-23T14:39:29.318Z,416
2019-01-23T14:40:25.906Z,428
2019-01-23T14:46:43.220Z,432
2019-01-23T14:47:39.597Z,424
2019-01-23T14:48:36.907Z,408
2019-01-23T14:49:36.610Z,400
2019-01-23T14:50:31.330Z,384
2019-01-23T14:51:26.126Z,388
2019-01-23T14:52:23.863Z,388
2019-01-23T14:53:11.593Z,384
2019-01-23T14:53:51.973Z,380
2019-01-23T14:54:33.102Z,368
2019-01-23T14:55:13.477Z,364
2019-01-23T14:55:53.770Z,352
2019-01-23T14:56:34.162Z,348
2019-01-23T14:57:14.604Z,344
2019-01-23T14:57:55.006Z,340
2019-01-23T14:58:35.435Z,336
2019-01-23T14:59:15.810Z,340
2019-01-23T14:59:56.460Z,340
2019-01-23T15:00:37.241Z,336
2019-01-23T15:01:17.572Z,332
2019-01-23T15:01:57.944Z,332
2019-01-23T15:02:39.801Z,328
2019-01-23T15:03:20.208Z,316
2019-01-23T15:04:00.621Z,312
2019-01-23T15:04:41.066Z,304
2019-01-23T15:05:21.416Z,296
2019-01-23T15:06:01.960Z,288
2019-01-23T15:06:42.452Z,284
2019-01-23T15:07:23.775Z,276
2019-01-23T15:08:04.156Z,272
2019-01-23T15:08:45.003Z,272
2019-01-23T15:09:25.969Z,268
2019-01-23T15:10:08.166Z,268
2019-01-23T15:11:20.070Z,256
2019-01-23T15:12:19.666Z,252
2019-01-23T15:12:59.725Z,248
2019-01-23T15:13:40.575Z,248
2019-01-23T15:14:27.597Z,244
2019-01-23T15:15:09.798Z,244
2019-01-23T15:15:50.930Z,244
2019-01-23T15:16:31.428Z,240
2019-01-23T15:17:12.614Z,240
2019-01-23T15:17:53.006Z,240
2019-01-23T15:18:34.504Z,236
2019-01-23T15:19:14.871Z,236
2019-01-23T15:20:02.723Z,232
2019-01-23T15:20:42.270Z,232
2019-01-23T15:21:24.068Z,228
2019-01-23T15:22:04.023Z,228
2019-01-23T15:22:44.303Z,224
2019-01-23T15:23:24.864Z,224
2019-01-23T15:24:05.373Z,220
2019-01-23T15:24:48.976Z,216
2019-01-23T15:25:29.432Z,212
2019-01-23T15:26:09.761Z,208
2019-01-23T15:26:50.252Z,208
2019-01-23T15:27:57.370Z,200
2019-01-23T15:29:02.308Z,192
2019-01-23T15:29:42.675Z,188
2019-01-23T15:30:23.039Z,184
2019-01-23T15:31:03.572Z,184
2019-01-23T15:31:52.677Z,176
2019-01-23T15:36:56.996Z,148
2019-01-23T15:37:52.025Z,148
2019-01-23T15:38:50.497Z,140
2019-01-23T15:39:45.019Z,132
2019-01-23T15:40:38.366Z,128
2019-01-23T15:41:33.093Z,120
2019-01-23T15:42:38.785Z,112
2019-01-23T15:46:41.068Z,88
2019-01-23T15:47:29.427Z,84
2019-01-23T15:48:18.313Z,80
2019-01-23T15:49:07.250Z,80
2019-01-23T15:51:33.439Z,64
2019-01-23T15:52:28.442Z,64
2019-01-23T15:53:24.075Z,60
2019-01-23T15:54:19.470Z,56
2019-01-23T15:55:15.652Z,52
2019-01-23T16:24:00.887Z,4
2019-01-23T16:24:55.974Z,4
2019-01-23T16:25:50.370Z,0
2019-01-23T16:26:50.966Z,0
2019-01-23T17:11:23.968Z,0
2019-01-23T17:12:18.557Z,0
2019-01-23T17:13:15.687Z,0
2019-01-23T17:14:12.318Z,0
2019-01-23T17:15:30.083Z,0
2019-01-23T17:22:15.758Z,0
2019-01-23T17:23:16.600Z,0
2019-01-23T17:26:19.452Z,0
2019-01-23T17:27:13.440Z,0
2019-01-23T17:30:08.627Z,0
2019-01-23T17:32:47.181Z,0
2019-01-23T17:33:37.258Z,0
2019-01-23T17:34:26.803Z,0
2019-01-23T17:35:17.661Z,0
2019-01-23T17:36:07.307Z,0
2019-01-23T17:36:58.407Z,0
2019-01-23T17:40:59.353Z,0
2019-01-23T17:41:54.778Z,0
2019-01-23T17:42:57.210Z,0
2019-01-23T17:44:23.505Z,0
2019-01-23T17:47:45.834Z,0
2019-01-23T17:48:42.473Z,0
2019-01-23T17:49:35.504Z,0
2019-01-23T17:50:30.432Z,0
2019-01-23T17:51:23.425Z,0
2019-01-23T17:52:17.683Z,0
2019-01-23T17:53:09.904Z,0
2019-01-23T17:54:04.055Z,0
2019-01-23T17:57:39.381Z,0
2019-01-23T17:58:37.030Z,0
2019-01-23T17:59:30.273Z,0
2019-01-23T18:00:23.158Z,0
2019-01-23T18:01:15.507Z,0
2019-01-23T18:02:10.837Z,0
2019-01-23T18:03:03.987Z,0
2019-01-23T18:03:56.359Z,0
2019-01-23T18:04:49.164Z,0
2019-01-23T18:05:41.577Z,0
2019-01-23T18:06:33.993Z,0
2019-01-23T18:07:26.538Z,0
2019-01-23T18:08:19.112Z,0
2019-01-23T18:09:11.629Z,0
2019-01-23T18:10:04.034Z,0
2019-01-23T18:10:56.648Z,0
2019-01-23T18:11:48.953Z,0
2019-01-23T18:12:42.162Z,0
2019-01-23T18:13:34.540Z,0
2019-01-23T18:14:27.167Z,0
2019-01-23T18:15:23.537Z,0
2019-01-23T18:16:15.609Z,0
2019-01-23T18:17:08.292Z,0
2019-01-23T18:18:01.461Z,0
2019-01-23T18:18:53.622Z,0
2019-01-23T18:19:46.754Z,0
2019-01-23T18:20:39.046Z,0
2019-01-23T18:21:31.370Z,0
2019-01-23T18:22:23.468Z,0
2019-01-23T18:23:16.061Z,0
2019-01-23T18:24:08.461Z,0
2019-01-23T18:25:01.092Z,0
2019-01-23T18:25:54.823Z,0
2019-01-23T18:26:48.514Z,0
2019-01-23T18:27:42.209Z,0
2019-01-23T18:28:35.579Z,0
2019-01-23T18:29:27.945Z,0
2019-01-23T18:30:21.220Z,0
2019-01-23T18:31:13.339Z,0
2019-01-23T18:32:05.526Z,0
2019-01-23T18:33:00.047Z,0
2019-01-23T18:33:50.546Z,0
2019-01-23T18:34:43.257Z,0
2019-01-23T18:35:35.647Z,0
2019-01-23T18:36:28.948Z,0
2019-01-23T18:37:22.063Z,0
2019-01-23T18:38:14.644Z,0
2019-01-23T18:39:07.109Z,0
2019-01-23T18:39:59.494Z,0
2019-01-23T18:40:52.508Z,0
2019-01-23T18:41:45.204Z,0
2019-01-23T18:42:37.565Z,0
2019-01-23T18:43:29.782Z,0
2019-01-23T18:44:21.875Z,0
2019-01-23T18:45:13.887Z,0
2019-01-23T18:46:05.818Z,0
2019-01-23T18:46:58.159Z,0
2019-01-23T18:47:50.074Z,0
2019-01-23T18:48:42.521Z,0
2019-01-23T18:49:35.594Z,0
2019-01-23T18:50:27.609Z,0
2019-01-23T18:51:19.825Z,0
2019-01-23T18:52:13.098Z,0
2019-01-23T18:53:05.283Z,0
2019-01-23T18:53:58.517Z,0
2019-01-23T18:54:50.513Z,0
2019-01-23T18:55:43.389Z,0
2019-01-23T18:56:35.643Z,0
2019-01-23T18:57:27.914Z,0
2019-01-23T18:58:20.076Z,0
2019-01-23T18:59:13.160Z,0
2019-01-23T19:00:05.692Z,0
2019-01-23T19:01:01.929Z,0
2019-01-23T19:01:54.246Z,0
2019-01-23T19:02:46.504Z,0
2019-01-23T19:03:39.121Z,0
2019-01-23T19:04:31.255Z,0
2019-01-23T19:05:23.639Z,0
2019-01-23T19:06:16.357Z,0
2019-01-23T19:07:08.616Z,0
2019-01-23T19:08:00.984Z,0
2019-01-23T19:08:53.857Z,0
2019-01-23T19:09:46.221Z,0
2019-01-23T19:10:38.839Z,0
2019-01-23T19:11:31.144Z,0
2019-01-23T19:12:23.508Z,0
2019-01-23T19:13:16.183Z,0
2019-01-23T19:14:08.710Z,0
2019-01-23T19:15:01.090Z,0
2019-01-23T19:15:53.615Z,0
2019-01-23T19:16:46.231Z,0
2019-01-23T19:17:38.687Z,0
2019-01-23T19:18:31.046Z,0
2019-01-23T19:19:23.755Z,0
2019-01-23T19:20:15.598Z,0
2019-01-23T19:21:09.027Z,0
2019-01-23T19:22:01.577Z,0
2019-01-23T19:22:53.967Z,0
2019-01-23T19:23:47.102Z,0
2019-01-23T19:24:39.516Z,0
2019-01-23T19:25:32.462Z,0
2019-01-23T19:26:25.170Z,0
2019-01-23T19:27:18.758Z,0
2019-01-23T19:28:10.698Z,0
2019-01-23T19:29:03.085Z,0
2019-01-23T19:29:55.361Z,0
2019-01-23T19:30:48.024Z,0
2019-01-23T19:31:40.718Z,0
2019-01-23T19:32:32.895Z,0
2019-01-23T19:33:26.080Z,0
2019-01-23T19:34:18.507Z,0
2019-01-23T19:35:10.943Z,0
2019-01-23T19:36:04.541Z,0
2019-01-23T19:36:57.146Z,0
2019-01-23T19:37:48.676Z,0
2019-01-23T19:40:14.702Z,0
2019-01-23T19:41:07.112Z,0
2019-01-23T19:41:59.736Z,0
2019-01-23T19:42:52.155Z,0
2019-01-23T19:43:44.695Z,0
2019-01-23T19:44:38.316Z,0
2019-01-23T19:45:30.125Z,0
2019-01-23T19:46:22.686Z,0
2019-01-23T19:47:14.929Z,0
2019-01-23T19:48:07.312Z,0
2019-01-23T19:48:59.385Z,0
2019-01-23T19:49:52.936Z,0
2019-01-23T19:50:45.138Z,0
2019-01-23T19:51:37.708Z,0
2019-01-23T19:52:29.575Z,0
2019-01-23T19:53:21.694Z,0
2019-01-23T19:54:14.115Z,0
2019-01-23T19:55:07.260Z,0
2019-01-23T19:55:59.442Z,0
2019-01-23T19:56:52.393Z,0
2019-01-23T19:57:44.467Z,0
2019-01-23T19:58:36.679Z,0
2019-01-23T19:59:29.595Z,0
2019-01-23T20:00:21.927Z,0
2019-01-23T20:01:14.303Z,0
2019-01-23T20:02:08.466Z,0
2019-01-23T20:03:00.366Z,0
2019-01-23T20:03:53.400Z,0
2019-01-23T20:04:45.158Z,0
2019-01-23T20:05:37.656Z,0
2019-01-23T20:06:30.102Z,0
2019-01-23T20:07:22.153Z,0
2019-01-23T20:08:15.123Z,0
2019-01-23T20:09:07.671Z,0
2019-01-23T20:10:00.264Z,0
2019-01-23T20:10:52.509Z,0
2019-01-23T20:11:44.926Z,0
2019-01-23T20:12:36.980Z,0
2019-01-23T20:13:29.408Z,0
2019-01-23T20:14:21.456Z,0
2019-01-23T20:15:14.110Z,0
2019-01-23T20:16:06.030Z,0
2019-01-23T20:16:58.546Z,0
2019-01-23T20:17:50.452Z,0
2019-01-23T20:18:42.688Z,0
2019-01-23T20:19:35.182Z,0
2019-01-23T20:20:27.981Z,0
2019-01-23T20:21:20.141Z,0
2019-01-23T20:22:13.320Z,0
2019-01-23T20:23:05.686Z,0
2019-01-23T20:23:58.729Z,0
2019-01-23T20:24:51.085Z,0
2019-01-23T20:25:43.175Z,0
2019-01-23T20:26:35.646Z,0
2019-01-23T20:27:27.869Z,0
2019-01-23T20:28:19.898Z,0
2019-01-23T20:29:12.773Z,0
2019-01-23T20:30:04.814Z,0
2019-01-23T20:30:57.043Z,0
2019-01-23T20:31:49.251Z,0
2019-01-23T20:32:41.368Z,0
2019-01-23T20:33:33.729Z,0
2019-01-23T20:34:26.436Z,0
2019-01-23T20:35:18.654Z,0
2019-01-23T20:36:11.855Z,0
2019-01-23T20:37:03.818Z,0
2019-01-23T20:37:56.103Z,0
2019-01-23T20:38:48.143Z,0
2019-01-23T20:39:41.383Z,0
2019-01-23T20:40:33.678Z,0
2019-01-23T20:41:25.969Z,0
2019-01-23T20:42:18.076Z,0
2019-01-23T20:43:10.874Z,0
2019-01-23T20:44:03.150Z,0
2019-01-23T20:44:55.661Z,0
2019-01-23T20:45:48.059Z,0
2019-01-23T20:46:40.251Z,0
2019-01-23T20:47:33.153Z,0
2019-01-23T20:48:25.619Z,0
2019-01-23T20:49:18.136Z,0
2019-01-23T20:50:10.796Z,0
2019-01-23T20:51:02.789Z,0
2019-01-23T20:51:55.360Z,0
2019-01-23T20:52:47.695Z,0
2019-01-23T20:53:39.819Z,0
2019-01-23T20:54:31.989Z,0
2019-01-23T20:55:24.047Z,0
2019-01-23T20:56:16.303Z,0
2019-01-23T20:57:08.668Z,0
2019-01-23T20:58:02.932Z,0
2019-01-23T20:58:55.657Z,0
2019-01-23T20:59:47.788Z,0
2019-01-23T21:00:42.572Z,0
2019-01-23T21:01:34.543Z,0
2019-01-23T21:02:26.728Z,0
2019-01-23T21:03:19.129Z,0
2019-01-23T21:04:13.016Z,0
2019-01-23T21:05:05.569Z,0
2019-01-23T21:05:58.130Z,0
2019-01-23T21:06:50.033Z,0
2019-01-23T21:07:42.158Z,0
2019-01-23T21:08:35.096Z,0
2019-01-23T21:09:27.055Z,0
2019-01-23T21:10:19.118Z,0
2019-01-23T21:11:11.648Z,0
2019-01-23T21:12:03.177Z,0
2019-01-23T21:12:55.202Z,0
2019-01-23T21:13:47.670Z,0
2019-01-23T21:14:39.735Z,0
2019-01-23T21:15:31.993Z,0
2019-01-23T21:16:25.858Z,0
2019-01-23T21:17:18.143Z,0
2019-01-23T21:18:10.588Z,0
2019-01-23T21:19:04.180Z,0
2019-01-23T21:20:01.078Z,0
2019-01-23T21:20:57.659Z,0
2019-01-23T21:21:54.122Z,0
2019-01-23T21:22:50.751Z,0
2019-01-23T21:23:45.946Z,0
2019-01-23T21:24:46.671Z,0
2019-01-23T21:25:42.226Z,0